Дата Пункты Температура Давл., мм. Влажн., % Ветер Погодные явления
Воздуха Воды Направл. Скорость
11.03.19 02:00 Одесса 10.0 5.0 751 51 Пд-З 3 02 ГОДИНИ
10.03.19 11:00 Одесса 11.0 5.0 753 41 Пд-З 3 23 ГОДИНИ
10.03.19 08:00 Одесса 8.0 5.0 754 41 Пн 0 20 ГОДИН
10.03.19 05:00 Одесса 13.0 5.0 753 29 Пн-З 7 17 ГОДИН
10.03.19 02:00 Одесса 10.0 5.0 753 69 Пн-З 7 14 ГОДИН
10.03.19 11:00 Одесса 13.0 5.0 752 59 З 3 11 ГОДИН
10.03.19 08:00 Одесса 11.0 5.0 753 56 Пд-З 3 08 ГОДИН
10.03.19 05:00 Одесса 7.0 5.0 755 83 З 2 05 ГОДИН
10.03.19 02:00 Одесса 9.0 5.0 755 81 З 2 02 ГОДИНИ
09.03.19 11:00 Одесса 10.0 5.0 756 85 З 4 23 ГОДИНИ
09.03.19 08:00 Одесса 12.0 5.0 757 53 Пд-З 2 20 ГОДИН
09.03.19 05:00 Одесса 14.0 5.0 758 49 Пн 0 17 ГОДИН
09.03.19 02:00 Одесса 13.0 5.0 759 61 Пд 1 14 ГОДИН
09.03.19 11:00 Одесса 13.0 5.0 760 57 Пн 2 11 ГОДИН
09.03.19 08:00 Одесса 11.0 5.0 760 69 Пн 2 08 ГОДИН
09.03.19 05:00 Одесса 7.0 5.0 759 91 Пн-З 2 05 ГОДИН
09.03.19 02:00 Одесса 8.0 5.0 758 83 Пд-З 4 02 ГОДИНИ
08.03.19 11:00 Одесса 9.0 5.0 759 84 Пд-З 5 23 ГОДИНИ
08.03.19 08:00 Одесса 8.0 5.0 759 89 Пд-З 2 20 ГОДИН
08.03.19 05:00 Одесса 7.0 5.0 759 87 Пд 3 17 ГОДИН
Количество строк
1 2 3 4 5 6 7 8 9 10
Page 6 of 472